Viacha, Bolivia
Current Conditions -  °F | °C
As of 9:00 AM on Friday 24 Oct 2014 (Local Time) from SLLP Reporting Station
Scattered Clouds Scattered Clouds  
Wind Chill: 50°   Ceiling: Unl
Heat Index: 50°   Visibility: 6mi
Dew Point: 36°   Wind: 2mph
Humidity: 58%   Direction: NA
Pressure: 30.68"   Gusts: NA
Location:  16.65°S, 68.3°W
Report Text: SLLP 241300Z VRB02KT 9999 SCT015 10/02 Q1039
Loading
Personal Weather Stations






























Interactive Weather Map
Tropical Storm Tracking
New forecast layout! Learn more

10-Day Weather Forecast

Advertisements
Track Severe Weather on mobile